ENST/SSJ METAR and TAF weather

Enter ICAO airport designator
Station Type Date Time Source
ENST METAR 2019/04/21 19:20 UTC NOAA

ENST 211920Z 19011KT 9999 FEW007 SCT015 BKN023 06/04 Q1017 RMK WIND 300FT 19012KT


Station Type Date Time Source
ENST Decoded METAR 2019/04/21 19:20 UTC NOAA

Sandnessjoen / Stokka, Norway (ENST) 65-58N 012-28E 17M
Apr 21, 2019 - 03:20 PM EDT / 2019.04.21 1920 UTC
Wind: from the S (190 degrees) at 13 MPH (11 KT):0
Visibility: greater than 7 mile(s):0
Sky conditions: mostly cloudy
Temperature: 42 F (6 C)
Dew Point: 39 F (4 C)
Relative Humidity: 86%
Pressure (altimeter): 30.03 in. Hg (1017 hPa)
ob: ENST 211920Z 19011KT 9999 FEW007 SCT015 BKN023 06/04 Q1017 RMK WIND 300FT 19012KT
cycle: 19

Station Type Date Time Source
ENST TAF UTC NOAA

Error!

Example: see airport list